Time;durP1;ratioP1;P1;durP2;ratioP2;P2;SDS_P1;SDS_P2;PMS_P1;PMS_P2;Temp;Humidity;BMP_temperature;BMP_pressure;BME280_temperature;BME280_humidity;BME280_pressure;Samples;Min_cycle;Max_cycle;Signal;HPM_P1;HPM_P2
2021/12/07 00:01:45;;;;;;;3.92;2.90;;;;;;;;;;5034855;28;20042;-54
2021/12/07 00:04:10;;;;;;;4.00;2.72;;;;;;;;;;5038266;28;20084;-52
2021/12/07 00:06:36;;;;;;;4.60;3.30;;;;;;;;;;5033536;28;20044;-54
2021/12/07 00:09:05;;;;;;;3.35;2.78;;;;;;;;;;5034645;28;20191;-52
2021/12/07 00:11:31;;;;;;;4.25;2.53;;;;;;;;;;5037028;28;20063;-51
2021/12/07 00:13:58;;;;;;;3.25;2.35;;;;;;;;;;5031787;28;20037;-52
2021/12/07 00:16:25;;;;;;;3.67;2.75;;;;;;;;;;5036984;28;20037;-49
2021/12/07 00:18:51;;;;;;;3.92;2.70;;;;;;;;;;5033435;28;20033;-51
2021/12/07 00:21:18;;;;;;;3.00;2.45;;;;;;;;;;5036179;28;20364;-50
2021/12/07 00:23:45;;;;;;;2.80;2.25;;;;;;;;;;5035654;28;20033;-53
2021/12/07 00:26:12;;;;;;;3.33;2.70;;;;;;;;;;5034483;28;20117;-52
2021/12/07 00:28:38;;;;;;;2.95;2.30;;;;;;;;;;5029504;28;20071;-49
2021/12/07 00:31:22;;;;;;;4.88;3.33;;;;;;;;;;5032296;28;20022;-48
2021/12/07 00:34:06;;;;;;;4.72;2.72;;;;;;;;;;5029970;28;20040;-48
2021/12/07 00:36:32;;;;;;;3.10;2.45;;;;;;;;;;5032140;28;20069;-49
2021/12/07 00:38:57;;;;;;;3.13;2.20;;;;;;;;;;5034676;28;20114;-51
2021/12/07 00:41:23;;;;;;;2.70;1.92;;;;;;;;;;5034227;28;20044;-49
2021/12/07 00:43:48;;;;;;;2.70;2.10;;;;;;;;;;5035596;28;20041;-50
2021/12/07 00:46:14;;;;;;;3.45;2.55;;;;;;;;;;5038569;28;20120;-54
2021/12/07 00:48:39;;;;;;;3.15;1.98;;;;;;;;;;5036403;28;20029;-49
2021/12/07 00:51:04;;;;;;;2.70;2.17;;;;;;;;;;5030069;28;20029;-50
2021/12/07 00:53:30;;;;;;;3.08;2.40;;;;;;;;;;5034154;28;20048;-50
2021/12/07 00:55:59;;;;;;;2.88;2.25;;;;;;;;;;5036700;28;20087;-50
2021/12/07 00:58:26;;;;;;;3.47;2.15;;;;;;;;;;5036659;28;20037;-49
2021/12/07 01:01:13;;;;;;;3.65;2.90;;;;;;;;;;5033474;28;20121;-52
2021/12/07 01:03:40;;;;;;;3.67;2.63;;;;;;;;;;5036151;28;20061;-53
2021/12/07 01:06:29;;;;;;;2.95;2.40;;;;;;;;;;5039537;28;20115;-52
2021/12/07 01:25:18;;;;;;;3.58;3.15;;;;;;;;;;5037487;28;20029;-54
2021/12/07 01:27:46;;;;;;;4.10;2.80;;;;;;;;;;5037038;28;20127;-53
2021/12/07 01:30:22;;;;;;;2.95;2.28;;;;;;;;;;5037576;28;20045;-53
2021/12/07 01:35:45;;;;;;;2.50;1.80;;;;;;;;;;5036828;28;20822;-51
2021/12/07 01:40:57;;;;;;;3.38;2.75;;;;;;;;;;5039019;28;20148;-51
2021/12/07 01:43:42;;;;;;;4.18;2.70;;;;;;;;;;5038108;28;20036;-51
2021/12/07 01:52:42;;;;;;;2.90;2.30;;;;;;;;;;5033803;28;20048;-51
2021/12/07 01:59:57;;;;;;;2.95;2.45;;;;;;;;;;5037189;28;20338;-53
2021/12/07 02:02:26;;;;;;;4.30;2.63;;;;;;;;;;5035201;28;20025;-50
2021/12/07 02:04:52;;;;;;;3.40;2.60;;;;;;;;;;5036436;28;20033;-51
2021/12/07 02:07:18;;;;;;;3.13;2.42;;;;;;;;;;5037756;28;20044;-48
2021/12/07 02:09:48;;;;;;;3.58;2.70;;;;;;;;;;5035785;28;20033;-51
2021/12/07 02:12:14;;;;;;;3.20;2.80;;;;;;;;;;5036968;28;20044;-51
2021/12/07 02:14:40;;;;;;;3.15;2.42;;;;;;;;;;5033043;28;20112;-48
2021/12/07 02:17:13;;;;;;;5.25;2.60;;;;;;;;;;5039440;28;20037;-51
2021/12/07 02:19:39;;;;;;;5.38;2.92;;;;;;;;;;5038516;28;20032;-54
2021/12/07 02:22:05;;;;;;;2.85;2.25;;;;;;;;;;5037278;28;20416;-50
2021/12/07 02:24:32;;;;;;;3.80;3.13;;;;;;;;;;5034826;28;20648;-49
2021/12/07 02:26:58;;;;;;;3.67;2.75;;;;;;;;;;5035026;28;20501;-52
2021/12/07 02:29:24;;;;;;;2.63;2.00;;;;;;;;;;5036276;28;20107;-52
2021/12/07 02:31:52;;;;;;;3.00;2.42;;;;;;;;;;5037993;28;20064;-54
2021/12/07 02:34:18;;;;;;;3.55;2.92;;;;;;;;;;5038528;28;20068;-50
2021/12/07 02:36:43;;;;;;;3.45;2.40;;;;;;;;;;5035890;28;20431;-50
2021/12/07 02:39:11;;;;;;;2.78;2.20;;;;;;;;;;5035968;28;20041;-50
2021/12/07 02:41:37;;;;;;;2.78;2.20;;;;;;;;;;5034647;28;20064;-50
2021/12/07 02:44:06;;;;;;;3.10;2.72;;;;;;;;;;5035332;28;20368;-48
2021/12/07 02:46:32;;;;;;;3.67;2.65;;;;;;;;;;5040058;28;20166;-52
2021/12/07 02:48:58;;;;;;;3.17;2.50;;;;;;;;;;5037588;28;20033;-51
2021/12/07 02:51:23;;;;;;;3.95;3.00;;;;;;;;;;5035839;28;20033;-50
2021/12/07 02:53:49;;;;;;;3.00;2.53;;;;;;;;;;5030239;28;20044;-50
2021/12/07 02:56:15;;;;;;;3.47;2.65;;;;;;;;;;5034477;28;20493;-52
2021/12/07 02:58:42;;;;;;;4.43;2.78;;;;;;;;;;5034028;28;20489;-50
2021/12/07 03:01:14;;;;;;;2.95;2.53;;;;;;;;;;5034137;28;20034;-49
2021/12/07 03:03:52;;;;;;;3.25;2.38;;;;;;;;;;5037911;28;20195;-53
2021/12/07 03:06:25;;;;;;;3.35;2.45;;;;;;;;;;5034578;28;20068;-50
2021/12/07 03:09:28;;;;;;;2.83;2.33;;;;;;;;;;5036854;28;20053;-51
2021/12/07 03:28:06;;;;;;;3.50;2.80;;;;;;;;;;5035833;28;20102;-53
2021/12/07 03:30:31;;;;;;;3.20;2.72;;;;;;;;;;5036748;28;20036;-52
2021/12/07 03:32:57;;;;;;;2.90;2.35;;;;;;;;;;5034544;28;20585;-51
2021/12/07 03:35:22;;;;;;;4.60;2.90;;;;;;;;;;5034618;28;20112;-50
2021/12/07 03:37:48;;;;;;;5.00;2.40;;;;;;;;;;5031134;28;20041;-50
2021/12/07 03:40:14;;;;;;;2.83;2.33;;;;;;;;;;5037387;28;20341;-56
2021/12/07 03:42:40;;;;;;;3.65;2.70;;;;;;;;;;5037365;28;20029;-53
2021/12/07 03:45:08;;;;;;;2.95;2.53;;;;;;;;;;5033029;28;20488;-52
2021/12/07 03:47:33;;;;;;;2.50;1.90;;;;;;;;;;5032781;28;20029;-51
2021/12/07 03:49:59;;;;;;;2.80;2.33;;;;;;;;;;5034583;28;20032;-51
2021/12/07 03:52:24;;;;;;;11.57;3.10;;;;;;;;;;5034781;28;20542;-54
2021/12/07 03:54:49;;;;;;;3.15;2.80;;;;;;;;;;5038682;28;22258;-53
2021/12/07 03:57:15;;;;;;;3.25;2.30;;;;;;;;;;5035831;28;20041;-52
2021/12/07 03:59:41;;;;;;;3.72;2.47;;;;;;;;;;5032923;28;20038;-53
2021/12/07 04:02:07;;;;;;;2.92;2.55;;;;;;;;;;5033337;28;20090;-55
2021/12/07 04:04:34;;;;;;;2.83;2.40;;;;;;;;;;5034347;28;20120;-52
2021/12/07 04:06:59;;;;;;;3.08;2.72;;;;;;;;;;5032550;28;20614;-53
2021/12/07 04:09:25;;;;;;;2.90;2.45;;;;;;;;;;5034654;28;20073;-54
2021/12/07 04:11:50;;;;;;;2.90;2.50;;;;;;;;;;5037066;28;20037;-54
2021/12/07 04:14:15;;;;;;;5.13;3.22;;;;;;;;;;5034228;28;20106;-50
2021/12/07 04:16:41;;;;;;;2.70;2.20;;;;;;;;;;5035747;28;20140;-50
2021/12/07 04:19:06;;;;;;;3.30;2.58;;;;;;;;;;5036104;28;20451;-53
2021/12/07 04:21:32;;;;;;;2.85;2.33;;;;;;;;;;5031224;28;20021;-50
2021/12/07 04:23:57;;;;;;;2.80;2.35;;;;;;;;;;5034430;28;20033;-51
2021/12/07 04:26:22;;;;;;;4.53;3.05;;;;;;;;;;5036458;28;20025;-51
2021/12/07 04:28:48;;;;;;;3.55;2.72;;;;;;;;;;5032855;28;20037;-49
2021/12/07 04:31:14;;;;;;;3.42;2.47;;;;;;;;;;5030218;28;20022;-53
2021/12/07 04:33:40;;;;;;;2.75;2.25;;;;;;;;;;5034460;28;20033;-51
2021/12/07 04:36:08;;;;;;;2.53;1.90;;;;;;;;;;5033876;28;20040;-53
2021/12/07 04:38:34;;;;;;;2.80;2.28;;;;;;;;;;5035911;28;20116;-52
2021/12/07 04:40:59;;;;;;;3.00;2.38;;;;;;;;;;5037484;28;20550;-52
2021/12/07 04:43:25;;;;;;;4.30;2.30;;;;;;;;;;5038936;28;20029;-51
2021/12/07 04:59:15;;;;;;;2.70;2.10;;;;;;;;;;5035060;28;20124;-51
2021/12/07 05:01:41;;;;;;;2.75;2.42;;;;;;;;;;5036474;28;20124;-53
2021/12/07 05:04:13;;;;;;;3.03;2.38;;;;;;;;;;5040635;28;20114;-52
2021/12/07 05:06:47;;;;;;;3.50;2.50;;;;;;;;;;5039727;28;20061;-50
2021/12/07 05:12:05;;;;;;;2.50;1.80;;;;;;;;;;5041684;28;20037;-50
2021/12/07 05:14:34;;;;;;;2.47;1.70;;;;;;;;;;5037059;28;20083;-52
2021/12/07 05:17:40;;;;;;;3.58;2.50;;;;;;;;;;5039146;28;20056;-53
2021/12/07 05:38:38;;;;;;;2.90;2.20;;;;;;;;;;5033577;28;20072;-49
2021/12/07 05:41:08;;;;;;;2.65;2.03;;;;;;;;;;5035770;28;20034;-49
2021/12/07 05:43:35;;;;;;;2.75;2.03;;;;;;;;;;5036464;28;20033;-50
2021/12/07 05:46:01;;;;;;;2.47;1.85;;;;;;;;;;5036007;28;20028;-52
2021/12/07 05:48:27;;;;;;;2.58;1.85;;;;;;;;;;5037767;28;20489;-52
2021/12/07 05:50:53;;;;;;;2.70;2.20;;;;;;;;;;5031208;28;20034;-51
2021/12/07 05:53:18;;;;;;;4.72;3.05;;;;;;;;;;5035248;28;20036;-53
2021/12/07 05:55:43;;;;;;;2.97;2.38;;;;;;;;;;5038595;28;20035;-54
2021/12/07 05:58:09;;;;;;;3.92;2.70;;;;;;;;;;5033370;28;20033;-50
2021/12/07 06:00:36;;;;;;;2.72;2.03;;;;;;;;;;5036799;28;20095;-52
2021/12/07 06:03:08;;;;;;;2.42;1.77;;;;;;;;;;5039987;28;20040;-51
2021/12/07 06:05:35;;;;;;;5.88;2.28;;;;;;;;;;5034301;28;20079;-52
2021/12/07 06:08:01;;;;;;;6.30;2.83;;;;;;;;;;5037439;28;20041;-51
2021/12/07 06:10:27;;;;;;;3.92;2.60;;;;;;;;;;5036379;28;20029;-53
2021/12/07 06:12:53;;;;;;;4.00;3.42;;;;;;;;;;5035526;28;20079;-53
2021/12/07 06:15:21;;;;;;;8.02;6.10;;;;;;;;;;5034091;28;20045;-54
2021/12/07 06:17:48;;;;;;;10.35;2.97;;;;;;;;;;5038934;28;20063;-53
2021/12/07 06:20:14;;;;;;;4.57;3.60;;;;;;;;;;5038960;28;20479;-53
2021/12/07 06:22:40;;;;;;;4.78;2.60;;;;;;;;;;5033625;28;20022;-53
2021/12/07 06:25:06;;;;;;;2.80;2.10;;;;;;;;;;5033962;28;20470;-50
2021/12/07 06:27:32;;;;;;;3.15;2.60;;;;;;;;;;5036455;28;20037;-51
2021/12/07 06:29:58;;;;;;;2.80;2.13;;;;;;;;;;5039024;28;20114;-52
2021/12/07 06:32:24;;;;;;;2.90;2.40;;;;;;;;;;5035258;28;20463;-53
2021/12/07 06:34:50;;;;;;;2.58;2.05;;;;;;;;;;5038184;28;20102;-53
2021/12/07 06:37:15;;;;;;;3.00;2.50;;;;;;;;;;5034361;28;20040;-52
2021/12/07 06:39:41;;;;;;;2.80;2.20;;;;;;;;;;5037858;28;20037;-50
2021/12/07 06:42:06;;;;;;;2.60;1.95;;;;;;;;;;5035790;28;20040;-51
2021/12/07 06:44:31;;;;;;;3.00;2.17;;;;;;;;;;5035224;28;20040;-54
2021/12/07 06:46:57;;;;;;;6.00;2.40;;;;;;;;;;5039408;28;20550;-51
2021/12/07 06:49:22;;;;;;;3.15;2.28;;;;;;;;;;5034349;28;20045;-53
2021/12/07 06:51:48;;;;;;;2.63;2.13;;;;;;;;;;5032504;28;20083;-52
2021/12/07 06:54:14;;;;;;;2.80;2.25;;;;;;;;;;5033723;28;20037;-51
2021/12/07 06:56:39;;;;;;;3.92;2.33;;;;;;;;;;5038317;28;20072;-49
2021/12/07 06:59:05;;;;;;;2.75;2.25;;;;;;;;;;5036586;28;20048;-51
2021/12/07 07:01:32;;;;;;;2.78;2.30;;;;;;;;;;5039356;28;20486;-52
2021/12/07 07:03:58;;;;;;;3.72;2.83;;;;;;;;;;5033957;28;20071;-51
2021/12/07 07:06:24;;;;;;;2.53;1.92;;;;;;;;;;5035488;28;20072;-52
2021/12/07 07:08:52;;;;;;;3.88;2.88;;;;;;;;;;5029283;28;20044;-51
2021/12/07 07:11:18;;;;;;;2.50;1.88;;;;;;;;;;5029775;28;20013;-50
2021/12/07 07:13:45;;;;;;;2.80;2.40;;;;;;;;;;5031950;28;20044;-51
2021/12/07 07:16:11;;;;;;;2.65;2.00;;;;;;;;;;5035949;28;20366;-53
2021/12/07 07:18:36;;;;;;;2.85;2.20;;;;;;;;;;5029767;28;20037;-54
2021/12/07 07:21:03;;;;;;;2.60;1.95;;;;;;;;;;5030501;28;20029;-50
2021/12/07 07:23:29;;;;;;;2.75;2.17;;;;;;;;;;5032305;28;20033;-52
2021/12/07 07:25:55;;;;;;;2.78;2.03;;;;;;;;;;5036655;28;20029;-52
2021/12/07 07:28:23;;;;;;;3.33;2.13;;;;;;;;;;5039374;28;20043;-52
2021/12/07 07:30:48;;;;;;;2.67;2.10;;;;;;;;;;5033729;28;20115;-52
2021/12/07 07:33:14;;;;;;;2.83;2.17;;;;;;;;;;5038101;28;20068;-53
2021/12/07 07:35:39;;;;;;;4.35;2.85;;;;;;;;;;5034346;28;20022;-53
2021/12/07 07:38:04;;;;;;;10.43;2.28;;;;;;;;;;5034843;28;20071;-52
2021/12/07 07:40:30;;;;;;;4.07;2.33;;;;;;;;;;5033812;28;20049;-51
2021/12/07 07:42:55;;;;;;;2.60;1.95;;;;;;;;;;5040401;28;20671;-51
2021/12/07 07:45:21;;;;;;;2.55;2.00;;;;;;;;;;5035238;28;20062;-53
2021/12/07 07:47:46;;;;;;;2.80;2.20;;;;;;;;;;5033347;28;20102;-53
2021/12/07 07:50:13;;;;;;;10.75;2.42;;;;;;;;;;5036002;28;20026;-53
2021/12/07 07:52:40;;;;;;;2.67;2.00;;;;;;;;;;5031127;28;20033;-51
2021/12/07 07:55:06;;;;;;;2.70;2.30;;;;;;;;;;5032545;28;20343;-54
2021/12/07 07:57:32;;;;;;;2.90;2.25;;;;;;;;;;5031689;28;20036;-50
2021/12/07 07:59:57;;;;;;;2.80;2.17;;;;;;;;;;5036157;28;20041;-53
2021/12/07 08:02:22;;;;;;;2.50;1.90;;;;;;;;;;5034567;28;20033;-52
2021/12/07 08:04:48;;;;;;;2.83;2.42;;;;;;;;;;5037095;28;20029;-54
2021/12/07 08:07:13;;;;;;;2.58;1.98;;;;;;;;;;5033039;28;20059;-52
2021/12/07 08:09:39;;;;;;;3.15;2.35;;;;;;;;;;5031425;28;20076;-51
2021/12/07 08:12:06;;;;;;;3.40;2.90;;;;;;;;;;5029288;28;20502;-50
2021/12/07 08:14:32;;;;;;;2.65;2.00;;;;;;;;;;5032743;28;20037;-51
2021/12/07 08:16:57;;;;;;;2.63;2.08;;;;;;;;;;5035893;28;20037;-50
2021/12/07 08:19:23;;;;;;;2.70;1.90;;;;;;;;;;5034794;28;20344;-54
2021/12/07 08:21:48;;;;;;;2.60;2.00;;;;;;;;;;5035851;28;20118;-52
2021/12/07 08:24:14;;;;;;;3.08;2.28;;;;;;;;;;5039900;28;20040;-50
2021/12/07 08:26:40;;;;;;;2.60;2.03;;;;;;;;;;5038020;28;20151;-52
2021/12/07 08:29:05;;;;;;;4.00;2.53;;;;;;;;;;5040055;28;20127;-51
2021/12/07 08:31:31;;;;;;;3.25;2.50;;;;;;;;;;5039154;28;20659;-50
2021/12/07 08:33:57;;;;;;;2.55;1.95;;;;;;;;;;5040546;28;20033;-50
2021/12/07 08:36:22;;;;;;;3.00;2.38;;;;;;;;;;5040678;28;20029;-51
2021/12/07 08:38:49;;;;;;;2.80;2.38;;;;;;;;;;5039545;28;20103;-51
2021/12/07 08:41:16;;;;;;;2.80;2.25;;;;;;;;;;5039805;28;20467;-54
2021/12/07 08:43:41;;;;;;;4.70;2.55;;;;;;;;;;5035577;28;20041;-52
2021/12/07 08:46:12;;;;;;;2.70;2.25;;;;;;;;;;5040546;28;20083;-51
2021/12/07 08:48:38;;;;;;;2.83;2.50;;;;;;;;;;5035905;28;20029;-49
2021/12/07 08:51:08;;;;;;;3.90;2.75;;;;;;;;;;5032128;28;20452;-50
2021/12/07 08:53:37;;;;;;;3.28;2.33;;;;;;;;;;5036634;28;20463;-53
2021/12/07 09:01:32;;;;;;;4.45;2.83;;;;;;;;;;5037253;28;20061;-55
2021/12/07 09:03:59;;;;;;;2.97;2.40;;;;;;;;;;5036531;28;20029;-53
2021/12/07 09:06:25;;;;;;;2.53;2.00;;;;;;;;;;5035426;28;20033;-54
2021/12/07 09:08:51;;;;;;;3.03;2.45;;;;;;;;;;5036283;28;20033;-54
2021/12/07 09:11:17;;;;;;;3.22;2.67;;;;;;;;;;5036169;28;20060;-54
2021/12/07 09:13:44;;;;;;;3.25;2.67;;;;;;;;;;5031803;28;20067;-55
2021/12/07 09:16:13;;;;;;;6.07;2.90;;;;;;;;;;5037046;28;20455;-55
2021/12/07 09:18:38;;;;;;;2.88;2.58;;;;;;;;;;5038382;28;20085;-54
2021/12/07 09:21:04;;;;;;;2.90;2.25;;;;;;;;;;5036632;28;20354;-50
2021/12/07 09:23:30;;;;;;;2.95;2.42;;;;;;;;;;5037105;28;20105;-52
2021/12/07 09:25:56;;;;;;;3.72;2.90;;;;;;;;;;5037423;28;20128;-50
2021/12/07 09:28:22;;;;;;;9.57;3.15;;;;;;;;;;5031034;28;20069;-51
2021/12/07 09:30:51;;;;;;;2.50;1.90;;;;;;;;;;5016503;28;20041;-54
2021/12/07 09:33:22;;;;;;;2.80;2.40;;;;;;;;;;5020378;28;20521;-53
2021/12/07 09:35:48;;;;;;;2.85;2.25;;;;;;;;;;5021449;28;20122;-51
2021/12/07 09:38:14;;;;;;;2.70;2.10;;;;;;;;;;5024124;28;20478;-52
2021/12/07 09:40:42;;;;;;;2.50;1.90;;;;;;;;;;5030494;28;20063;-54
2021/12/07 09:43:08;;;;;;;4.55;2.65;;;;;;;;;;5038938;28;20044;-53
2021/12/07 09:45:34;;;;;;;2.75;2.22;;;;;;;;;;5037798;28;20179;-52
2021/12/07 09:48:01;;;;;;;3.80;2.47;;;;;;;;;;5039091;28;20108;-52
2021/12/07 09:50:27;;;;;;;2.60;2.05;;;;;;;;;;5037151;28;20036;-51
2021/12/07 09:52:53;;;;;;;2.90;2.28;;;;;;;;;;5035282;28;20041;-54
2021/12/07 09:55:18;;;;;;;2.80;2.10;;;;;;;;;;5033032;28;20052;-54
2021/12/07 09:57:45;;;;;;;17.92;2.80;;;;;;;;;;5035914;28;20049;-54
2021/12/07 10:00:14;;;;;;;2.70;2.15;;;;;;;;;;5035907;28;20030;-55
2021/12/07 10:02:40;;;;;;;3.00;2.35;;;;;;;;;;5036001;28;20030;-54
2021/12/07 10:05:06;;;;;;;6.03;2.40;;;;;;;;;;5037504;28;20036;-55
2021/12/07 10:07:32;;;;;;;3.55;2.60;;;;;;;;;;5020007;28;20376;-54
2021/12/07 10:09:58;;;;;;;4.45;2.72;;;;;;;;;;5032336;28;20029;-54
2021/12/07 10:12:24;;;;;;;2.92;2.42;;;;;;;;;;5035361;28;20103;-55
2021/12/07 10:14:50;;;;;;;3.10;2.38;;;;;;;;;;5034524;28;20060;-52
2021/12/07 10:17:22;;;;;;;2.88;2.35;;;;;;;;;;5037990;28;20047;-55
2021/12/07 10:19:48;;;;;;;2.72;2.30;;;;;;;;;;5036377;28;20613;-51
2021/12/07 10:22:19;;;;;;;3.88;2.35;;;;;;;;;;5035185;28;20477;-50
2021/12/07 10:24:54;;;;;;;2.97;2.42;;;;;;;;;;5036106;28;20076;-54
2021/12/07 10:27:32;;;;;;;2.72;2.22;;;;;;;;;;5035101;28;20021;-54
2021/12/07 10:29:57;;;;;;;5.70;2.75;;;;;;;;;;5032552;28;20028;-52
2021/12/07 10:32:23;;;;;;;3.08;2.40;;;;;;;;;;5035067;28;20454;-52
2021/12/07 10:34:48;;;;;;;3.67;2.38;;;;;;;;;;5034121;28;20117;-54
2021/12/07 10:37:17;;;;;;;3.28;2.50;;;;;;;;;;5036422;28;20085;-50
2021/12/07 10:39:45;;;;;;;2.65;2.15;;;;;;;;;;5032805;28;20096;-52
2021/12/07 10:42:14;;;;;;;2.92;2.42;;;;;;;;;;5037319;28;20033;-51
2021/12/07 10:44:41;;;;;;;2.70;2.30;;;;;;;;;;5036925;28;20059;-51
2021/12/07 10:47:10;;;;;;;4.47;2.45;;;;;;;;;;5040428;28;20028;-52
2021/12/07 10:49:46;;;;;;;2.60;2.05;;;;;;;;;;5033345;28;20033;-52
2021/12/07 10:52:17;;;;;;;2.90;2.08;;;;;;;;;;5034984;28;20041;-51
2021/12/07 10:54:49;;;;;;;3.65;2.47;;;;;;;;;;5032215;28;20193;-50
2021/12/07 10:57:24;;;;;;;2.70;2.22;;;;;;;;;;5033698;28;20044;-50
2021/12/07 11:00:15;;;;;;;3.53;2.38;;;;;;;;;;5033456;28;20049;-52
2021/12/07 11:02:45;;;;;;;2.90;2.30;;;;;;;;;;5034615;28;20071;-50
2021/12/07 11:05:17;;;;;;;4.20;2.55;;;;;;;;;;5032548;28;20075;-53
2021/12/07 11:07:42;;;;;;;2.85;2.17;;;;;;;;;;5032180;28;20083;-52
2021/12/07 11:10:28;;;;;;;11.00;2.55;;;;;;;;;;5035083;28;20041;-52
2021/12/07 11:13:23;;;;;;;3.85;2.97;;;;;;;;;;5031367;28;20158;-51
2021/12/07 11:15:57;;;;;;;10.57;2.47;;;;;;;;;;5033850;28;20619;-55
2021/12/07 11:18:30;;;;;;;4.75;2.75;;;;;;;;;;5029050;28;20375;-54
2021/12/07 11:21:00;;;;;;;2.90;2.45;;;;;;;;;;5033724;28;20032;-54
2021/12/07 11:23:30;;;;;;;2.65;2.25;;;;;;;;;;5034625;28;20029;-54
2021/12/07 11:31:34;;;;;;;2.70;2.30;;;;;;;;;;5032815;28;20030;-54
2021/12/07 11:34:07;;;;;;;2.75;2.28;;;;;;;;;;5034922;28;20069;-55
2021/12/07 11:36:37;;;;;;;3.63;3.22;;;;;;;;;;5028404;28;20886;-54
2021/12/07 11:39:17;;;;;;;3.00;2.45;;;;;;;;;;5034772;28;20434;-53
2021/12/07 11:41:42;;;;;;;2.95;2.58;;;;;;;;;;5032638;28;20402;-54
2021/12/07 11:44:08;;;;;;;2.50;2.00;;;;;;;;;;5034528;28;20029;-53
2021/12/07 11:46:36;;;;;;;4.55;2.70;;;;;;;;;;5034939;28;20486;-50
2021/12/07 11:49:12;;;;;;;2.80;2.10;;;;;;;;;;5035330;28;20055;-51
2021/12/07 11:51:39;;;;;;;2.60;2.00;;;;;;;;;;5037444;28;20053;-53
2021/12/07 11:54:05;;;;;;;3.05;2.17;;;;;;;;;;5033654;28;20052;-53
2021/12/07 11:56:31;;;;;;;3.03;2.05;;;;;;;;;;5036632;28;20029;-51
2021/12/07 11:58:56;;;;;;;5.90;2.55;;;;;;;;;;5033583;28;20045;-51
2021/12/07 12:01:22;;;;;;;2.75;2.35;;;;;;;;;;5032833;28;20445;-52
2021/12/07 12:03:47;;;;;;;8.48;2.60;;;;;;;;;;5031672;28;20363;-53
2021/12/07 12:06:13;;;;;;;2.80;2.42;;;;;;;;;;5035836;28;20029;-54
2021/12/07 12:08:39;;;;;;;2.70;2.20;;;;;;;;;;5036429;28;20056;-51
2021/12/07 12:11:27;;;;;;;3.22;2.40;;;;;;;;;;5033839;28;20026;-54
2021/12/07 12:14:23;;;;;;;3.22;2.70;;;;;;;;;;5029360;28;20105;-54
2021/12/07 12:17:05;;;;;;;2.60;2.13;;;;;;;;;;5034051;28;20030;-54
2021/12/07 12:20:03;;;;;;;2.70;2.15;;;;;;;;;;5035803;28;20462;-53
2021/12/07 12:22:43;;;;;;;3.22;2.50;;;;;;;;;;5031322;28;20037;-54
2021/12/07 12:25:15;;;;;;;3.00;2.33;;;;;;;;;;5030615;28;20033;-51
2021/12/07 12:27:41;;;;;;;3.13;2.38;;;;;;;;;;5034166;28;20138;-51
2021/12/07 12:30:16;;;;;;;3.00;2.60;;;;;;;;;;5032385;28;20033;-51
2021/12/07 12:32:44;;;;;;;2.70;2.20;;;;;;;;;;5035937;28;20371;-51
2021/12/07 12:35:10;;;;;;;4.75;2.83;;;;;;;;;;5036809;28;20029;-53
2021/12/07 12:37:37;;;;;;;2.95;2.50;;;;;;;;;;5035851;28;20028;-49
2021/12/07 12:40:07;;;;;;;4.25;2.53;;;;;;;;;;5034610;28;20426;-49
2021/12/07 12:42:48;;;;;;;4.75;3.22;;;;;;;;;;5031363;28;20044;-51
2021/12/07 12:45:22;;;;;;;2.85;2.28;;;;;;;;;;5031139;28;20045;-53
2021/12/07 12:48:09;;;;;;;3.60;2.60;;;;;;;;;;5035108;28;20029;-53
2021/12/07 12:50:43;;;;;;;2.80;2.40;;;;;;;;;;5033802;28;20040;-52
2021/12/07 12:53:15;;;;;;;3.35;2.72;;;;;;;;;;5034600;28;20041;-52
2021/12/07 12:55:48;;;;;;;2.70;2.20;;;;;;;;;;5030828;28;20045;-53
2021/12/07 12:58:28;;;;;;;5.80;2.00;;;;;;;;;;5037381;28;20533;-52
2021/12/07 13:01:12;;;;;;;2.80;2.38;;;;;;;;;;5032014;28;20107;-52
2021/12/07 13:03:41;;;;;;;2.60;2.08;;;;;;;;;;5033376;28;20491;-53
2021/12/07 13:06:06;;;;;;;2.92;2.45;;;;;;;;;;5038550;28;20041;-52
2021/12/07 13:08:49;;;;;;;2.80;2.35;;;;;;;;;;5040337;28;20133;-52
2021/12/07 13:11:30;;;;;;;4.78;3.35;;;;;;;;;;5034765;28;20067;-55
2021/12/07 13:13:56;;;;;;;2.85;2.45;;;;;;;;;;5035018;28;20524;-51
2021/12/07 13:16:21;;;;;;;2.60;2.00;;;;;;;;;;5036433;28;20032;-52
2021/12/07 13:18:46;;;;;;;2.95;2.42;;;;;;;;;;5036807;28;20516;-51
2021/12/07 13:21:30;;;;;;;3.00;2.67;;;;;;;;;;5037969;28;20358;-51
2021/12/07 13:24:00;;;;;;;3.40;2.50;;;;;;;;;;5038539;28;20037;-51
2021/12/07 13:26:26;;;;;;;2.80;2.40;;;;;;;;;;5036754;28;20029;-53
2021/12/07 13:29:03;;;;;;;2.60;1.98;;;;;;;;;;5038728;28;20038;-53
2021/12/07 13:31:39;;;;;;;2.60;1.98;;;;;;;;;;5036128;28;20044;-51
2021/12/07 13:34:06;;;;;;;2.70;2.22;;;;;;;;;;5039930;28;20037;-51
2021/12/07 13:36:57;;;;;;;2.90;2.47;;;;;;;;;;5036641;28;20080;-49
2021/12/07 13:39:23;;;;;;;5.28;2.55;;;;;;;;;;5036196;28;20037;-50
2021/12/07 13:41:59;;;;;;;3.00;2.28;;;;;;;;;;5036918;28;20064;-49
2021/12/07 13:44:26;;;;;;;4.80;2.42;;;;;;;;;;5036020;28;20033;-51
2021/12/07 13:46:57;;;;;;;3.45;2.20;;;;;;;;;;5038123;28;20041;-52
2021/12/07 13:49:22;;;;;;;;;;;;;;;;;;5034513;28;20551;-53
2021/12/07 13:51:48;;;;;;;2.70;2.30;;;;;;;;;;5037970;28;20015;-50
2021/12/07 13:54:19;;;;;;;3.05;2.55;;;;;;;;;;5036839;28;20087;-53
2021/12/07 13:56:45;;;;;;;;;;;;;;;;;;5037333;28;20041;-53
2021/12/07 13:59:13;;;;;;;2.97;2.47;;;;;;;;;;5033722;28;19928;-52
2021/12/07 14:01:57;;;;;;;6.60;3.53;;;;;;;;;;5033059;28;20111;-51
2021/12/07 14:04:25;;;;;;;2.97;2.25;;;;;;;;;;5036041;28;20037;-52
2021/12/07 14:06:51;;;;;;;4.85;2.30;;;;;;;;;;5038531;28;20048;-52
2021/12/07 14:09:17;;;;;;;2.70;2.17;;;;;;;;;;5036752;28;20374;-50
2021/12/07 14:11:43;;;;;;;10.57;3.03;;;;;;;;;;5034455;28;20068;-53
2021/12/07 14:14:12;;;;;;;3.38;3.08;;;;;;;;;;5036227;28;20118;-52
2021/12/07 14:16:39;;;;;;;3.25;2.22;;;;;;;;;;5033801;28;20163;-53
2021/12/07 14:19:04;;;;;;;3.03;2.72;;;;;;;;;;5038185;28;20539;-50
2021/12/07 14:21:30;;;;;;;2.78;2.10;;;;;;;;;;5036069;28;20308;-49
2021/12/07 14:24:04;;;;;;;3.65;2.83;;;;;;;;;;5036940;28;20076;-52
2021/12/07 14:26:34;;;;;;;3.00;2.33;;;;;;;;;;5021538;28;20040;-51
2021/12/07 14:29:03;;;;;;;4.10;2.72;;;;;;;;;;5038423;28;20102;-51
2021/12/07 14:31:33;;;;;;;3.85;2.75;;;;;;;;;;5032672;28;20047;-51
2021/12/07 14:34:02;;;;;;;6.75;4.97;;;;;;;;;;5034561;28;20040;-54
2021/12/07 14:36:31;;;;;;;3.70;3.03;;;;;;;;;;5034503;28;20036;-49
2021/12/07 14:39:02;;;;;;;7.57;3.45;;;;;;;;;;5034887;28;20033;-52
2021/12/07 14:41:29;;;;;;;3.78;3.25;;;;;;;;;;5036423;28;20033;-50
2021/12/07 14:43:55;;;;;;;5.00;3.20;;;;;;;;;;5028238;28;20045;-50
2021/12/07 14:46:22;;;;;;;3.47;2.85;;;;;;;;;;5033275;28;20033;-54
2021/12/07 14:48:49;;;;;;;3.70;2.88;;;;;;;;;;5027880;28;20044;-50
2021/12/07 14:51:16;;;;;;;3.50;2.85;;;;;;;;;;5028263;28;20457;-53
2021/12/07 14:53:55;;;;;;;2.75;2.33;;;;;;;;;;5033925;28;20087;-50
2021/12/07 14:56:22;;;;;;;3.58;3.05;;;;;;;;;;5038264;28;20811;-50
2021/12/07 14:58:49;;;;;;;3.60;2.95;;;;;;;;;;5027809;28;20047;-50
2021/12/07 15:01:19;;;;;;;4.50;3.65;;;;;;;;;;5026195;28;20043;-49
2021/12/07 15:03:56;;;;;;;6.30;3.23;;;;;;;;;;5034169;28;20026;-49
2021/12/07 15:06:23;;;;;;;3.30;2.70;;;;;;;;;;5036243;28;20511;-51
2021/12/07 15:08:49;;;;;;;3.50;3.17;;;;;;;;;;5035836;28;20522;-51
2021/12/07 15:11:14;;;;;;;8.82;3.45;;;;;;;;;;5035155;28;20475;-52
2021/12/07 15:13:40;;;;;;;3.55;2.95;;;;;;;;;;5034957;28;20032;-52
2021/12/07 15:16:11;;;;;;;3.47;2.65;;;;;;;;;;5032549;28;20180;-50
2021/12/07 15:18:41;;;;;;;2.90;2.30;;;;;;;;;;5036575;28;20100;-52
2021/12/07 15:21:11;;;;;;;4.93;2.90;;;;;;;;;;5035133;28;20029;-50
2021/12/07 15:23:44;;;;;;;7.47;3.28;;;;;;;;;;5031757;28;20423;-51
2021/12/07 15:26:10;;;;;;;4.93;3.63;;;;;;;;;;5035423;28;20042;-53
2021/12/07 15:28:36;;;;;;;4.15;3.30;;;;;;;;;;5033354;28;20458;-49
2021/12/07 15:31:01;;;;;;;4.88;3.63;;;;;;;;;;5036000;28;20040;-52
2021/12/07 15:33:27;;;;;;;2.95;2.45;;;;;;;;;;5036308;28;20509;-51
2021/12/07 15:35:52;;;;;;;3.22;2.85;;;;;;;;;;5036004;28;20427;-50
2021/12/07 15:38:19;;;;;;;2.83;2.45;;;;;;;;;;5035551;28;20045;-49
2021/12/07 15:40:45;;;;;;;6.22;3.78;;;;;;;;;;5034945;28;20041;-50
2021/12/07 15:43:12;;;;;;;4.85;4.15;;;;;;;;;;5036919;28;20415;-49
2021/12/07 15:45:39;;;;;;;6.45;4.30;;;;;;;;;;5035712;28;20340;-52
2021/12/07 15:48:04;;;;;;;3.45;2.63;;;;;;;;;;5033285;28;20459;-51
2021/12/07 15:50:32;;;;;;;2.80;2.30;;;;;;;;;;5035153;28;20029;-51
2021/12/07 15:53:10;;;;;;;3.10;2.60;;;;;;;;;;5030492;28;20175;-52
2021/12/07 15:55:41;;;;;;;2.78;2.38;;;;;;;;;;5037127;28;20366;-50
2021/12/07 15:58:15;;;;;;;32.97;17.80;;;;;;;;;;5034475;28;20030;-51
2021/12/07 16:00:42;;;;;;;39.72;27.25;;;;;;;;;;5035129;28;20037;-53
2021/12/07 16:03:17;;;;;;;56.97;27.83;;;;;;;;;;5034780;28;20074;-54
2021/12/07 16:05:46;;;;;;;129.13;55.05;;;;;;;;;;5034656;28;20403;-51
2021/12/07 16:08:16;;;;;;;192.45;96.30;;;;;;;;;;5027140;28;20036;-51
2021/12/07 16:10:45;;;;;;;18.00;13.00;;;;;;;;;;5033872;28;20391;-50
2021/12/07 16:13:16;;;;;;;17.50;9.90;;;;;;;;;;5032750;28;20110;-51
2021/12/07 16:15:53;;;;;;;21.70;12.68;;;;;;;;;;5032495;28;20053;-53
2021/12/07 16:18:19;;;;;;;106.22;56.72;;;;;;;;;;5029760;28;20041;-51
2021/12/07 16:20:44;;;;;;;43.53;23.25;;;;;;;;;;5032426;28;20030;-55
2021/12/07 16:23:10;;;;;;;7.90;5.70;;;;;;;;;;5035311;28;20061;-51
2021/12/07 16:25:38;;;;;;;17.95;9.80;;;;;;;;;;5032796;28;20692;-51
2021/12/07 16:28:04;;;;;;;10.77;6.72;;;;;;;;;;5032133;28;20061;-51